Time;durP1;ratioP1;P1;durP2;ratioP2;P2;SDS_P1;SDS_P2;PMS_P1;PMS_P2;Temp;Humidity;BMP_temperature;BMP_pressure;BME280_temperature;BME280_humidity;BME280_pressure;Samples;Min_cycle;Max_cycle;Signal;HPM_P1;HPM_P2
2022/12/19 00:01:35;;;;;;;2.47;2.35;;;;;;;1.79;65.41;102889.72;18350545;32;20086;-58
2022/12/19 00:11:40;;;;;;;0.90;0.90;;;;;;;1.74;65.33;102882.44;18349783;32;20449;-58
2022/12/19 00:21:43;;;;;;;0.80;0.80;;;;;;;1.89;65.20;102898.13;18349264;32;20093;-58
2022/12/19 00:31:48;;;;;;;0.90;0.90;;;;;;;1.96;64.71;102894.34;18350896;32;20361;-58
2022/12/19 00:41:51;;;;;;;0.80;0.80;;;;;;;1.87;65.04;102884.25;18358631;32;20117;-58
2022/12/19 00:51:58;;;;;;;17.52;9.00;;;;;;;1.97;65.29;102891.88;18358283;32;20116;-58
2022/12/19 01:02:01;;;;;;;0.90;0.90;;;;;;;2.13;64.96;102885.28;18358023;32;20134;-58
2022/12/19 01:22:36;;;;;;;0.70;0.70;;;;;;;2.23;64.43;102872.25;18485284;32;20160;-57
2022/12/19 01:32:41;;;;;;;0.88;0.88;;;;;;;2.14;65.11;102869.00;18485905;32;20160;-58
2022/12/19 01:42:44;;;;;;;4.22;3.33;;;;;;;2.07;65.02;102850.53;18484835;32;20130;-58
2022/12/19 01:52:49;;;;;;;1.85;1.75;;;;;;;2.11;64.88;102827.56;18442656;32;20101;-58
2022/12/19 02:02:54;;;;;;;1.05;1.05;;;;;;;2.01;64.73;102826.00;18356822;32;20239;-58
2022/12/19 02:12:59;;;;;;;0.70;0.70;;;;;;;2.06;64.43;102825.53;18409429;31;20146;-58
2022/12/19 02:23:19;;;;;;;1.33;1.27;;;;;;;2.03;64.77;102816.69;18354889;32;20113;-58
2022/12/19 02:33:31;;;;;;;0.80;0.80;;;;;;;2.10;65.07;102820.63;18354047;32;20085;-58
2022/12/19 02:43:39;;;;;;;0.80;0.80;;;;;;;2.10;65.09;102838.66;18353895;32;20108;-58
2022/12/19 02:53:43;;;;;;;2.20;2.03;;;;;;;2.25;64.96;102832.00;18352974;32;20125;-58
2022/12/19 03:03:52;;;;;;;4.30;1.23;;;;;;;2.19;64.93;102847.94;18352629;32;20369;-58
2022/12/19 03:13:59;;;;;;;3.15;2.97;;;;;;;2.32;64.81;102839.41;18352882;32;20100;-58
2022/12/19 03:24:04;;;;;;;1.90;1.80;;;;;;;2.26;65.35;102828.66;18353482;32;20100;-58
2022/12/19 03:34:12;;;;;;;2.05;1.95;;;;;;;2.37;64.72;102801.06;18351680;32;20712;-58
2022/12/19 03:44:15;;;;;;;9.65;8.80;;;;;;;2.38;64.75;102791.66;18351212;32;20100;-58
2022/12/19 03:54:23;;;;;;;0.90;0.90;;;;;;;2.19;65.04;102798.09;18350628;32;20177;-58
2022/12/19 04:04:27;;;;;;;1.20;1.20;;;;;;;2.29;65.09;102817.66;18351313;32;20101;-58
2022/12/19 04:14:35;;;;;;;1.55;1.52;;;;;;;2.38;64.42;102818.31;18358742;32;20440;-58
2022/12/19 04:24:40;;;;;;;0.88;0.88;;;;;;;2.29;64.79;102813.41;18359473;32;20424;-58
2022/12/19 04:34:45;;;;;;;0.85;0.85;;;;;;;2.28;64.76;102811.62;18358931;31;20101;-58
2022/12/19 04:44:48;;;;;;;1.70;1.60;;;;;;;2.28;64.82;102821.94;18358692;32;20145;-58
2022/12/19 04:54:52;;;;;;;0.90;0.90;;;;;;;2.26;65.03;102813.19;18358138;32;20713;-58
2022/12/19 05:04:55;;;;;;;1.05;1.05;;;;;;;2.29;65.15;102821.16;18357434;32;20093;-58
2022/12/19 05:15:00;;;;;;;0.90;0.90;;;;;;;2.35;65.29;102821.56;18356755;32;20165;-58
2022/12/19 05:25:09;;;;;;;7.07;3.47;;;;;;;2.20;65.87;102820.50;18357213;32;20089;-58
2022/12/19 05:35:14;;;;;;;0.90;0.90;;;;;;;2.41;65.17;102813.37;18356511;32;20433;-58
2022/12/19 05:45:17;;;;;;;4.82;4.40;;;;;;;2.45;65.28;102799.00;18356288;32;20102;-58
2022/12/19 05:55:22;;;;;;;0.70;0.70;;;;;;;2.60;64.72;102810.41;18355644;32;20121;-58
2022/12/19 06:05:25;;;;;;;1.20;1.20;;;;;;;2.55;65.07;102795.41;18388358;32;20101;-57
2022/12/19 06:15:30;;;;;;;1.23;1.23;;;;;;;2.42;65.25;102803.97;18374248;32;20135;-58
2022/12/19 06:25:34;;;;;;;1.75;1.50;;;;;;;2.45;65.36;102817.06;18363344;32;20093;-58
2022/12/19 06:35:38;;;;;;;1.08;1.08;;;;;;;2.64;65.03;102821.84;18383388;31;20179;-58
2022/12/19 06:45:42;;;;;;;0.77;0.77;;;;;;;2.56;65.23;102811.00;18410353;32;20128;-59
2022/12/19 06:55:47;;;;;;;4.43;2.47;;;;;;;2.63;65.20;102823.50;18390352;32;20105;-59
2022/12/19 07:05:50;;;;;;;1.42;1.35;;;;;;;3.16;65.47;102829.66;18462105;31;20178;-58
2022/12/19 07:16:00;;;;;;;0.60;0.60;;;;;;;2.42;65.87;102835.81;18418394;32;20089;-58
2022/12/19 07:26:03;;;;;;;0.80;0.80;;;;;;;2.22;65.78;102847.28;18470073;31;20110;-57
2022/12/19 07:36:08;;;;;;;0.80;0.80;;;;;;;1.39;68.58;102845.56;18364773;31;20102;-57
2022/12/19 07:46:11;;;;;;;0.90;0.90;;;;;;;0.44;72.80;102865.75;18365765;32;20120;-59
2022/12/19 07:56:16;;;;;;;0.75;0.75;;;;;;;1.24;64.53;102853.94;18410289;32;20101;-57
2022/12/19 08:06:20;;;;;;;0.80;0.80;;;;;;;1.23;64.17;102861.53;18409381;31;20115;-57
2022/12/19 08:16:26;;;;;;;1.05;1.00;;;;;;;1.13;63.78;102884.78;18359533;32;20100;-57
2022/12/19 08:26:29;;;;;;;2.22;2.12;;;;;;;1.71;61.23;102882.22;18360815;32;20396;-57
2022/12/19 08:36:42;;;;;;;0.80;0.80;;;;;;;1.69;59.66;102886.38;18403996;31;20109;-58
2022/12/19 08:46:46;;;;;;;0.90;0.90;;;;;;;1.95;59.25;102880.56;18424059;32;20101;-58
2022/12/19 08:56:54;;;;;;;0.77;0.77;;;;;;;2.60;57.05;102861.06;18367904;32;20081;-58
2022/12/19 09:06:57;;;;;;;1.25;1.25;;;;;;;2.07;57.72;102863.41;18388103;32;20115;-57
2022/12/19 09:17:01;;;;;;;0.60;0.60;;;;;;;2.14;58.72;102858.72;18422112;32;20093;-57
2022/12/19 09:27:06;;;;;;;0.80;0.80;;;;;;;1.66;60.11;102863.84;18421383;32;20092;-58
2022/12/19 09:37:12;;;;;;;0.80;0.80;;;;;;;2.73;59.05;102868.91;18414183;31;20093;-57
2022/12/19 09:47:23;;;;;;;0.70;0.70;;;;;;;0.54;62.76;102863.13;18386109;32;20105;-57
2022/12/19 09:57:36;;;;;;;7.22;6.78;;;;;;;0.53;64.10;102856.22;18420809;32;20093;-57
2022/12/19 10:07:39;;;;;;;0.70;0.70;;;;;;;0.99;62.01;102834.84;18396412;32;20507;-57
2022/12/19 10:18:18;;;;;;;1.67;1.20;;;;;;;0.55;64.64;102834.09;18355910;32;20185;-57
2022/12/19 10:28:36;;;;;;;1.23;1.23;;;;;;;1.22;62.88;102816.00;18368711;32;20720;-58
2022/12/19 10:38:51;;;;;;;0.80;0.80;;;;;;;1.10;61.86;102810.81;18402743;32;20440;-57
2022/12/19 10:48:54;;;;;;;0.90;0.90;;;;;;;0.32;63.60;102806.56;18470913;31;20346;-57
2022/12/19 10:59:00;;;;;;;1.67;1.65;;;;;;;1.14;61.26;102784.56;18389267;32;20116;-57
2022/12/19 11:09:17;;;;;;;0.80;0.80;;;;;;;1.33;60.22;102785.94;18418134;32;20089;-57
2022/12/19 11:19:30;;;;;;;0.70;0.70;;;;;;;1.28;63.56;102779.53;18414232;32;20124;-57
2022/12/19 11:29:54;;;;;;;0.70;0.70;;;;;;;0.73;64.05;102785.78;18465129;31;20090;-57
2022/12/19 11:40:25;;;;;;;0.90;0.90;;;;;;;0.69;64.21;102766.66;18353808;32;158369;-57
2022/12/19 11:50:31;;;;;;;0.70;0.70;;;;;;;0.63;65.22;102753.31;18354033;32;20092;-57
2022/12/19 12:00:37;;;;;;;0.80;0.80;;;;;;;0.26;65.66;102735.06;18415517;32;20109;-57
2022/12/19 12:10:45;;;;;;;0.55;0.55;;;;;;;0.75;64.21;102722.50;18412734;32;20173;-57
2022/12/19 12:21:21;;;;;;;1.77;1.70;;;;;;;0.19;65.81;102719.94;18398170;32;20097;-57
2022/12/19 12:31:59;;;;;;;0.70;0.70;;;;;;;0.09;66.67;102711.50;18367248;31;20489;-57
2022/12/19 12:42:36;;;;;;;0.75;0.75;;;;;;;0.61;64.74;102703.47;18379733;32;20094;-57
2022/12/19 12:52:43;;;;;;;1.30;1.30;;;;;;;0.83;65.30;102710.22;18410694;32;20085;-58
2022/12/19 13:02:50;;;;;;;0.82;0.82;;;;;;;1.45;62.65;102699.31;18389180;32;20105;-57
2022/12/19 13:13:02;;;;;;;0.90;0.90;;;;;;;1.12;63.31;102688.34;18423552;32;20077;-57
2022/12/19 13:23:22;;;;;;;0.60;0.60;;;;;;;1.04;63.02;102684.28;18424314;32;20108;-57
2022/12/19 13:33:25;;;;;;;1.52;1.50;;;;;;;1.51;61.78;102663.69;18423746;32;20087;-57
2022/12/19 13:43:46;;;;;;;0.80;0.80;;;;;;;0.88;63.84;102671.97;18409732;32;20141;-57
2022/12/19 13:53:52;;;;;;;0.85;0.85;;;;;;;0.21;66.43;102656.75;18424195;32;20092;-57
2022/12/19 14:04:07;;;;;;;3.08;2.97;;;;;;;0.56;65.21;102671.34;18389754;32;20144;-57
2022/12/19 14:24:55;;;;;;;0.80;0.80;;;;;;;1.17;64.15;102653.56;18484914;32;20133;-58
2022/12/19 14:35:21;;;;;;;0.80;0.80;;;;;;;0.43;66.52;102655.81;18484502;32;20369;-57
2022/12/19 14:45:46;;;;;;;0.93;0.93;;;;;;;1.08;63.88;102655.47;18487365;32;20240;-58
2022/12/19 14:56:11;;;;;;;0.80;0.80;;;;;;;2.04;61.35;102643.28;18427122;32;20093;-57
2022/12/19 15:06:41;;;;;;;1.52;1.48;;;;;;;1.38;62.91;102643.03;18356598;32;20120;-57
2022/12/19 15:17:17;;;;;;;1.05;1.05;;;;;;;0.30;66.51;102647.19;18356865;32;20205;-57
2022/12/19 15:27:26;;;;;;;0.77;0.77;;;;;;;1.27;64.03;102657.69;18355658;32;20428;-57
2022/12/19 15:37:29;;;;;;;1.62;1.58;;;;;;;1.12;64.47;102670.31;18354851;32;20121;-57
2022/12/19 15:47:35;;;;;;;0.70;0.70;;;;;;;1.35;63.41;102659.12;18354607;32;20102;-57
2022/12/19 15:57:40;;;;;;;7.37;6.82;;;;;;;0.53;66.06;102648.91;18354897;32;20094;-57
2022/12/19 16:07:46;;;;;;;0.90;0.90;;;;;;;0.74;65.52;102642.66;18374126;32;20111;-57
2022/12/19 16:17:49;;;;;;;1.70;1.65;;;;;;;0.97;64.80;102641.81;18364425;32;20112;-57
2022/12/19 16:27:56;;;;;;;2.08;1.98;;;;;;;1.23;63.11;102630.84;18374926;32;20165;-58
2022/12/19 16:37:59;;;;;;;1.73;1.52;;;;;;;0.84;64.40;102632.28;18372499;32;20109;-58
2022/12/19 16:48:19;;;;;;;2.67;2.47;;;;;;;2.10;61.45;102612.78;18355517;32;20164;-57
2022/12/19 16:58:25;;;;;;;0.70;0.70;;;;;;;2.32;61.36;102610.00;18379614;32;20407;-57
2022/12/19 17:08:31;;;;;;;0.80;0.80;;;;;;;2.03;60.68;102613.16;18372507;32;20097;-58
2022/12/19 17:18:37;;;;;;;0.95;0.93;;;;;;;1.71;61.39;102619.56;18351412;32;20376;-59
2022/12/19 17:28:42;;;;;;;0.75;0.75;;;;;;;1.32;63.25;102627.13;18416122;32;20069;-57
2022/12/19 17:38:45;;;;;;;0.82;0.82;;;;;;;0.96;64.57;102624.59;18417727;31;20107;-58
2022/12/19 17:48:51;;;;;;;0.90;0.90;;;;;;;1.20;63.50;102632.31;18445126;31;20135;-57
2022/12/19 17:58:55;;;;;;;0.93;0.93;;;;;;;0.80;64.43;102638.88;18403180;31;20112;-57
2022/12/19 18:09:02;;;;;;;0.70;0.70;;;;;;;1.69;61.43;102629.75;18394594;32;20104;-57
2022/12/19 18:19:05;;;;;;;3.40;3.10;;;;;;;0.69;64.63;102621.75;18429003;31;20361;-58
2022/12/19 18:29:10;;;;;;;19.58;10.43;;;;;;;1.41;62.95;102620.06;18418212;32;20097;-57
2022/12/19 18:39:20;;;;;;;1.15;1.15;;;;;;;1.82;60.79;102628.91;18437003;31;20093;-58
2022/12/19 18:49:24;;;;;;;2.17;2.03;;;;;;;1.43;62.29;102615.94;18425238;31;20167;-57
2022/12/19 18:59:28;;;;;;;3.30;2.92;;;;;;;0.16;66.08;102592.19;18407890;31;20108;-57
2022/12/19 19:09:32;;;;;;;0.80;0.80;;;;;;;0.25;65.93;102581.69;18433779;31;20096;-57
2022/12/19 19:19:36;;;;;;;0.80;0.80;;;;;;;0.25;66.21;102577.47;18465925;31;20440;-57
2022/12/19 19:29:40;;;;;;;0.70;0.70;;;;;;;0.52;65.75;102567.44;18377745;32;20145;-57
2022/12/19 19:39:44;;;;;;;0.70;0.70;;;;;;;0.71;64.96;102560.19;18389939;32;20156;-57
2022/12/19 19:49:49;;;;;;;0.80;0.80;;;;;;;0.81;64.39;102557.50;18441582;31;20093;-57
2022/12/19 19:59:52;;;;;;;10.93;5.70;;;;;;;0.78;65.08;102544.44;18428650;31;20161;-57
2022/12/19 20:09:57;;;;;;;0.88;0.85;;;;;;;0.83;64.93;102549.13;18399242;32;20109;-57
2022/12/19 20:20:00;;;;;;;3.43;3.33;;;;;;;1.01;64.36;102552.91;18384664;32;20120;-57
2022/12/19 20:30:06;;;;;;;0.75;0.75;;;;;;;0.63;65.90;102568.22;18404568;31;20149;-57
2022/12/19 20:40:11;;;;;;;0.70;0.70;;;;;;;-0.15;68.39;102557.34;18350456;32;20156;-57
2022/12/19 20:50:16;;;;;;;0.70;0.70;;;;;;;0.24;67.63;102551.63;18644837;31;20427;-57
2022/12/19 21:00:20;;;;;;;0.80;0.80;;;;;;;0.89;64.81;102547.75;18655741;31;20069;-58
2022/12/19 21:10:25;;;;;;;3.12;3.00;;;;;;;0.37;67.23;102554.31;18663302;31;20106;-58
2022/12/19 21:20:29;;;;;;;0.75;0.75;;;;;;;0.55;67.43;102552.25;18682545;31;20144;-57
2022/12/19 21:30:38;;;;;;;0.60;0.60;;;;;;;0.73;67.05;102536.38;18693418;31;20132;-57
2022/12/19 21:40:41;;;;;;;9.85;6.60;;;;;;;0.41;67.04;102519.47;18683325;31;20128;-58
2022/12/19 21:50:45;;;;;;;0.67;0.67;;;;;;;0.10;68.45;102523.25;18475457;31;20096;-57
2022/12/19 22:00:48;;;;;;;1.02;1.02;;;;;;;-0.42;70.65;102535.59;18407485;32;20089;-57
2022/12/19 22:10:53;;;;;;;2.75;2.65;;;;;;;1.23;65.58;102524.44;18374737;32;20119;-57
2022/12/19 22:20:57;;;;;;;1.45;1.42;;;;;;;1.86;62.77;102517.59;18374916;32;20451;-58
2022/12/19 22:31:02;;;;;;;1.10;1.10;;;;;;;1.78;62.29;102499.03;18351827;32;20101;-57
2022/12/19 22:41:06;;;;;;;0.60;0.60;;;;;;;-0.20;69.26;102486.75;18356317;32;20089;-57
2022/12/19 22:51:10;;;;;;;0.90;0.90;;;;;;;-0.15;69.92;102488.03;18354871;32;20146;-58
2022/12/19 23:01:15;;;;;;;0.90;0.90;;;;;;;-0.43;70.87;102456.78;18365230;32;20707;-57
2022/12/19 23:11:21;;;;;;;1.98;1.80;;;;;;;-0.19;69.77;102449.16;18352614;32;20144;-58
2022/12/19 23:21:26;;;;;;;0.85;0.85;;;;;;;1.34;65.07;102442.84;18353866;32;20118;-58
2022/12/19 23:31:31;;;;;;;1.50;1.45;;;;;;;0.83;65.70;102450.50;18353414;32;20101;-58
2022/12/19 23:41:34;;;;;;;0.80;0.80;;;;;;;0.98;64.82;102426.66;18351699;32;20089;-58
2022/12/19 23:51:38;;;;;;;0.80;0.80;;;;;;;0.64;65.86;102427.75;18352214;32;20111;-57
